sensor_id;sensor_type;location;lat;lon;timestamp;temperature;humidity
15115;DHT22;7658;51.456;7.622;2022-07-03T00:01:54;18.10;99.90
15115;DHT22;7658;51.456;7.622;2022-07-03T00:04:20;18.10;99.90
15115;DHT22;7658;51.456;7.622;2022-07-03T00:06:46;18.10;99.90
15115;DHT22;7658;51.456;7.622;2022-07-03T00:09:12;18.00;99.90
15115;DHT22;7658;51.456;7.622;2022-07-03T00:11:38;17.90;99.90
15115;DHT22;7658;51.456;7.622;2022-07-03T00:14:04;17.90;99.90
15115;DHT22;7658;51.456;7.622;2022-07-03T00:16:30;17.90;99.90
15115;DHT22;7658;51.456;7.622;2022-07-03T00:18:56;17.90;99.90
15115;DHT22;7658;51.456;7.622;2022-07-03T00:21:29;17.80;99.90
15115;DHT22;7658;51.456;7.622;2022-07-03T00:24:08;17.70;99.90
15115;DHT22;7658;51.456;7.622;2022-07-03T00:26:36;17.70;99.90
15115;DHT22;7658;51.456;7.622;2022-07-03T00:29:03;17.60;99.90
15115;DHT22;7658;51.456;7.622;2022-07-03T00:31:30;17.60;99.90
15115;DHT22;7658;51.456;7.622;2022-07-03T00:34:01;17.50;99.90
15115;DHT22;7658;51.456;7.622;2022-07-03T00:36:33;17.40;99.90
15115;DHT22;7658;51.456;7.622;2022-07-03T00:39:00;17.30;99.90
15115;DHT22;7658;51.456;7.622;2022-07-03T00:41:31;17.20;99.90
15115;DHT22;7658;51.456;7.622;2022-07-03T00:43:57;17.20;99.90
15115;DHT22;7658;51.456;7.622;2022-07-03T00:46:25;17.20;99.90
15115;DHT22;7658;51.456;7.622;2022-07-03T00:48:53;17.10;99.90
15115;DHT22;7658;51.456;7.622;2022-07-03T00:51:28;17.20;99.90
15115;DHT22;7658;51.456;7.622;2022-07-03T00:53:58;17.10;99.90
15115;DHT22;7658;51.456;7.622;2022-07-03T00:56:29;17.10;99.90
15115;DHT22;7658;51.456;7.622;2022-07-03T00:58:57;17.10;99.90
15115;DHT22;7658;51.456;7.622;2022-07-03T01:01:30;17.00;99.90
15115;DHT22;7658;51.456;7.622;2022-07-03T01:04:25;17.00;99.90
15115;DHT22;7658;51.456;7.622;2022-07-03T01:07:02;16.90;99.90
15115;DHT22;7658;51.456;7.622;2022-07-03T01:09:43;16.80;99.90
15115;DHT22;7658;51.456;7.622;2022-07-03T01:15:11;16.70;99.90
15115;DHT22;7658;51.456;7.622;2022-07-03T01:17:46;16.60;99.90
15115;DHT22;7658;51.456;7.622;2022-07-03T01:20:15;16.50;99.90
15115;DHT22;7658;51.456;7.622;2022-07-03T01:22:45;16.50;99.90
15115;DHT22;7658;51.456;7.622;2022-07-03T01:28:13;16.40;99.90
15115;DHT22;7658;51.456;7.622;2022-07-03T01:30:46;16.40;99.90
15115;DHT22;7658;51.456;7.622;2022-07-03T01:36:04;16.40;99.90
15115;DHT22;7658;51.456;7.622;2022-07-03T01:38:34;16.50;99.90
15115;DHT22;7658;51.456;7.622;2022-07-03T01:41:04;16.50;99.90
15115;DHT22;7658;51.456;7.622;2022-07-03T01:43:32;16.60;99.90
15115;DHT22;7658;51.456;7.622;2022-07-03T01:46:00;16.60;99.90
15115;DHT22;7658;51.456;7.622;2022-07-03T01:48:28;16.70;99.90
15115;DHT22;7658;51.456;7.622;2022-07-03T01:50:55;16.60;99.90
15115;DHT22;7658;51.456;7.622;2022-07-03T01:53:27;16.70;99.90
15115;DHT22;7658;51.456;7.622;2022-07-03T01:56:00;16.70;99.90
15115;DHT22;7658;51.456;7.622;2022-07-03T01:58:27;16.60;99.90
15115;DHT22;7658;51.456;7.622;2022-07-03T02:01:06;16.50;99.90
15115;DHT22;7658;51.456;7.622;2022-07-03T02:03:35;16.50;99.90
15115;DHT22;7658;51.456;7.622;2022-07-03T02:06:08;16.50;99.90
15115;DHT22;7658;51.456;7.622;2022-07-03T02:13:36;16.30;99.90
15115;DHT22;7658;51.456;7.622;2022-07-03T02:16:03;16.20;99.90
15115;DHT22;7658;51.456;7.622;2022-07-03T02:18:33;16.20;99.90
15115;DHT22;7658;51.456;7.622;2022-07-03T02:21:14;16.10;99.90
15115;DHT22;7658;51.456;7.622;2022-07-03T02:26:21;16.00;99.90
15115;DHT22;7658;51.456;7.622;2022-07-03T02:28:59;16.00;99.90
15115;DHT22;7658;51.456;7.622;2022-07-03T02:31:27;15.90;99.90
15115;DHT22;7658;51.456;7.622;2022-07-03T02:33:57;15.90;99.90
15115;DHT22;7658;51.456;7.622;2022-07-03T02:36:27;15.90;99.90
15115;DHT22;7658;51.456;7.622;2022-07-03T02:38:56;15.90;99.90
15115;DHT22;7658;51.456;7.622;2022-07-03T02:41:51;15.90;99.90
15115;DHT22;7658;51.456;7.622;2022-07-03T02:44:31;15.80;99.90
15115;DHT22;7658;51.456;7.622;2022-07-03T03:01:07;15.90;99.90
15115;DHT22;7658;51.456;7.622;2022-07-03T03:03:34;15.90;99.90
15115;DHT22;7658;51.456;7.622;2022-07-03T03:06:04;15.90;99.90
15115;DHT22;7658;51.456;7.622;2022-07-03T03:08:48;15.80;99.90
15115;DHT22;7658;51.456;7.622;2022-07-03T03:11:32;15.80;99.90
15115;DHT22;7658;51.456;7.622;2022-07-03T03:14:06;15.70;99.90
15115;DHT22;7658;51.456;7.622;2022-07-03T03:16:33;15.60;99.90
15115;DHT22;7658;51.456;7.622;2022-07-03T03:19:01;15.50;99.90
15115;DHT22;7658;51.456;7.622;2022-07-03T03:21:30;15.50;99.90
15115;DHT22;7658;51.456;7.622;2022-07-03T03:23:57;15.50;99.90
15115;DHT22;7658;51.456;7.622;2022-07-03T03:26:26;15.40;99.90
15115;DHT22;7658;51.456;7.622;2022-07-03T03:28:53;15.30;99.90
15115;DHT22;7658;51.456;7.622;2022-07-03T03:31:21;15.20;99.90
15115;DHT22;7658;51.456;7.622;2022-07-03T03:33:49;15.20;99.90
15115;DHT22;7658;51.456;7.622;2022-07-03T03:36:17;15.20;99.90
15115;DHT22;7658;51.456;7.622;2022-07-03T03:38:43;15.20;99.90
15115;DHT22;7658;51.456;7.622;2022-07-03T03:41:10;15.30;99.90
15115;DHT22;7658;51.456;7.622;2022-07-03T03:43:36;15.30;99.90
15115;DHT22;7658;51.456;7.622;2022-07-03T03:46:02;15.20;99.90
15115;DHT22;7658;51.456;7.622;2022-07-03T03:48:30;15.20;99.90
15115;DHT22;7658;51.456;7.622;2022-07-03T03:50:57;15.10;99.90
15115;DHT22;7658;51.456;7.622;2022-07-03T03:53:25;15.10;99.90
15115;DHT22;7658;51.456;7.622;2022-07-03T03:56:07;15.10;99.90
15115;DHT22;7658;51.456;7.622;2022-07-03T03:58:36;15.10;99.90
15115;DHT22;7658;51.456;7.622;2022-07-03T04:01:04;15.10;99.90
15115;DHT22;7658;51.456;7.622;2022-07-03T04:03:30;15.00;99.90
15115;DHT22;7658;51.456;7.622;2022-07-03T04:05:56;15.00;99.90
15115;DHT22;7658;51.456;7.622;2022-07-03T04:08:24;15.10;99.90
15115;DHT22;7658;51.456;7.622;2022-07-03T04:10:50;15.10;99.90
15115;DHT22;7658;51.456;7.622;2022-07-03T04:13:16;15.10;99.90
15115;DHT22;7658;51.456;7.622;2022-07-03T04:15:42;15.10;99.90
15115;DHT22;7658;51.456;7.622;2022-07-03T04:18:08;15.10;99.90
15115;DHT22;7658;51.456;7.622;2022-07-03T04:20:34;15.10;99.90
15115;DHT22;7658;51.456;7.622;2022-07-03T04:23:00;15.20;99.90
15115;DHT22;7658;51.456;7.622;2022-07-03T04:25:27;15.20;99.90
15115;DHT22;7658;51.456;7.622;2022-07-03T04:27:52;15.20;99.90
15115;DHT22;7658;51.456;7.622;2022-07-03T04:30:19;15.30;99.90
15115;DHT22;7658;51.456;7.622;2022-07-03T04:32:44;15.30;99.90
15115;DHT22;7658;51.456;7.622;2022-07-03T04:35:11;15.40;99.90
15115;DHT22;7658;51.456;7.622;2022-07-03T04:37:37;15.40;99.90
15115;DHT22;7658;51.456;7.622;2022-07-03T04:40:03;15.50;99.90
15115;DHT22;7658;51.456;7.622;2022-07-03T04:42:29;15.60;99.90
15115;DHT22;7658;51.456;7.622;2022-07-03T04:44:55;15.70;99.90
15115;DHT22;7658;51.456;7.622;2022-07-03T04:47:21;15.70;99.90
15115;DHT22;7658;51.456;7.622;2022-07-03T04:49:47;15.80;99.90
15115;DHT22;7658;51.456;7.622;2022-07-03T04:52:12;15.80;99.90
15115;DHT22;7658;51.456;7.622;2022-07-03T04:54:38;15.80;99.90
15115;DHT22;7658;51.456;7.622;2022-07-03T04:57:04;15.80;99.90
15115;DHT22;7658;51.456;7.622;2022-07-03T04:59:30;15.90;99.90
15115;DHT22;7658;51.456;7.622;2022-07-03T05:01:56;16.10;99.90
15115;DHT22;7658;51.456;7.622;2022-07-03T05:04:22;16.20;99.90
15115;DHT22;7658;51.456;7.622;2022-07-03T05:06:48;16.30;99.90
15115;DHT22;7658;51.456;7.622;2022-07-03T05:09:14;16.40;99.90
15115;DHT22;7658;51.456;7.622;2022-07-03T05:11:40;16.40;99.90
15115;DHT22;7658;51.456;7.622;2022-07-03T05:14:07;16.50;99.90
15115;DHT22;7658;51.456;7.622;2022-07-03T05:16:33;16.60;99.90
15115;DHT22;7658;51.456;7.622;2022-07-03T05:18:59;16.60;99.90
15115;DHT22;7658;51.456;7.622;2022-07-03T05:21:25;16.70;99.90
15115;DHT22;7658;51.456;7.622;2022-07-03T05:23:50;16.80;99.90
15115;DHT22;7658;51.456;7.622;2022-07-03T05:26:17;17.00;99.90
15115;DHT22;7658;51.456;7.622;2022-07-03T05:28:43;17.10;99.90
15115;DHT22;7658;51.456;7.622;2022-07-03T05:31:09;17.10;99.90
15115;DHT22;7658;51.456;7.622;2022-07-03T05:33:35;17.30;99.90
15115;DHT22;7658;51.456;7.622;2022-07-03T05:36:01;17.30;99.90
15115;DHT22;7658;51.456;7.622;2022-07-03T05:38:27;17.40;99.90
15115;DHT22;7658;51.456;7.622;2022-07-03T05:41:11;17.50;99.90
15115;DHT22;7658;51.456;7.622;2022-07-03T05:43:37;17.50;99.90
15115;DHT22;7658;51.456;7.622;2022-07-03T05:46:03;17.50;99.90
15115;DHT22;7658;51.456;7.622;2022-07-03T05:48:29;17.50;99.90
15115;DHT22;7658;51.456;7.622;2022-07-03T05:50:56;17.50;99.90
15115;DHT22;7658;51.456;7.622;2022-07-03T05:53:22;17.50;99.90
15115;DHT22;7658;51.456;7.622;2022-07-03T05:55:48;17.50;99.90
15115;DHT22;7658;51.456;7.622;2022-07-03T05:58:13;17.60;99.90
15115;DHT22;7658;51.456;7.622;2022-07-03T06:00:40;17.60;99.90
15115;DHT22;7658;51.456;7.622;2022-07-03T06:03:05;17.70;99.90
15115;DHT22;7658;51.456;7.622;2022-07-03T06:05:31;17.80;99.90
15115;DHT22;7658;51.456;7.622;2022-07-03T06:07:58;17.90;99.90
15115;DHT22;7658;51.456;7.622;2022-07-03T06:10:25;18.00;99.90
15115;DHT22;7658;51.456;7.622;2022-07-03T06:12:51;18.00;99.90
15115;DHT22;7658;51.456;7.622;2022-07-03T06:15:17;18.10;99.90
15115;DHT22;7658;51.456;7.622;2022-07-03T06:17:42;18.30;99.90
15115;DHT22;7658;51.456;7.622;2022-07-03T06:20:10;18.40;99.90
15115;DHT22;7658;51.456;7.622;2022-07-03T06:22:36;18.60;99.90
15115;DHT22;7658;51.456;7.622;2022-07-03T06:25:02;18.60;99.90
15115;DHT22;7658;51.456;7.622;2022-07-03T06:27:28;18.80;99.90
15115;DHT22;7658;51.456;7.622;2022-07-03T06:29:54;19.00;99.90
15115;DHT22;7658;51.456;7.622;2022-07-03T06:32:20;19.10;99.90
15115;DHT22;7658;51.456;7.622;2022-07-03T06:34:46;19.30;99.90
15115;DHT22;7658;51.456;7.622;2022-07-03T06:37:12;19.30;99.90
15115;DHT22;7658;51.456;7.622;2022-07-03T06:39:38;19.30;99.90
15115;DHT22;7658;51.456;7.622;2022-07-03T06:42:05;19.40;99.90
15115;DHT22;7658;51.456;7.622;2022-07-03T06:44:32;19.40;99.90
15115;DHT22;7658;51.456;7.622;2022-07-03T06:47:01;19.50;99.90
15115;DHT22;7658;51.456;7.622;2022-07-03T06:49:32;19.60;99.90
15115;DHT22;7658;51.456;7.622;2022-07-03T06:51:59;19.70;99.90
15115;DHT22;7658;51.456;7.622;2022-07-03T06:54:25;19.70;99.90
15115;DHT22;7658;51.456;7.622;2022-07-03T06:56:51;19.90;99.90
15115;DHT22;7658;51.456;7.622;2022-07-03T06:59:16;20.00;99.90
15115;DHT22;7658;51.456;7.622;2022-07-03T07:01:42;20.10;99.90
15115;DHT22;7658;51.456;7.622;2022-07-03T07:04:08;20.30;99.90
15115;DHT22;7658;51.456;7.622;2022-07-03T07:06:34;20.30;99.90
15115;DHT22;7658;51.456;7.622;2022-07-03T07:09:00;20.50;99.90
15115;DHT22;7658;51.456;7.622;2022-07-03T07:11:26;20.60;99.90
15115;DHT22;7658;51.456;7.622;2022-07-03T07:13:52;20.70;99.90
15115;DHT22;7658;51.456;7.622;2022-07-03T07:16:18;20.80;99.90
15115;DHT22;7658;51.456;7.622;2022-07-03T07:18:44;20.90;99.90
15115;DHT22;7658;51.456;7.622;2022-07-03T07:21:10;21.00;99.90
15115;DHT22;7658;51.456;7.622;2022-07-03T07:23:36;21.20;99.90
15115;DHT22;7658;51.456;7.622;2022-07-03T07:26:02;21.30;99.90
15115;DHT22;7658;51.456;7.622;2022-07-03T07:28:28;21.40;99.90
15115;DHT22;7658;51.456;7.622;2022-07-03T07:30:56;21.50;99.90
15115;DHT22;7658;51.456;7.622;2022-07-03T07:33:23;21.60;99.90
15115;DHT22;7658;51.456;7.622;2022-07-03T07:35:49;21.70;99.90
15115;DHT22;7658;51.456;7.622;2022-07-03T07:38:16;21.70;99.90
15115;DHT22;7658;51.456;7.622;2022-07-03T07:40:42;21.80;99.90
15115;DHT22;7658;51.456;7.622;2022-07-03T07:43:08;21.90;99.90
15115;DHT22;7658;51.456;7.622;2022-07-03T07:45:34;21.90;99.90
15115;DHT22;7658;51.456;7.622;2022-07-03T07:48:00;21.90;99.90
15115;DHT22;7658;51.456;7.622;2022-07-03T07:50:26;22.00;99.90
15115;DHT22;7658;51.456;7.622;2022-07-03T07:52:52;22.00;99.90
15115;DHT22;7658;51.456;7.622;2022-07-03T07:55:19;22.00;99.90
15115;DHT22;7658;51.456;7.622;2022-07-03T07:57:46;22.10;99.90
15115;DHT22;7658;51.456;7.622;2022-07-03T08:00:16;22.20;99.90
15115;DHT22;7658;51.456;7.622;2022-07-03T08:02:42;22.30;99.90
15115;DHT22;7658;51.456;7.622;2022-07-03T08:05:27;22.30;99.90
15115;DHT22;7658;51.456;7.622;2022-07-03T08:08:04;22.40;99.90
15115;DHT22;7658;51.456;7.622;2022-07-03T08:10:37;22.50;99.90
15115;DHT22;7658;51.456;7.622;2022-07-03T08:13:04;22.50;99.90
15115;DHT22;7658;51.456;7.622;2022-07-03T08:15:30;22.60;99.90
15115;DHT22;7658;51.456;7.622;2022-07-03T08:17:56;22.70;99.90
15115;DHT22;7658;51.456;7.622;2022-07-03T08:20:22;22.70;99.90
15115;DHT22;7658;51.456;7.622;2022-07-03T08:22:47;22.80;99.90
15115;DHT22;7658;51.456;7.622;2022-07-03T08:25:13;22.90;99.90
15115;DHT22;7658;51.456;7.622;2022-07-03T08:27:39;23.00;99.90
15115;DHT22;7658;51.456;7.622;2022-07-03T08:30:05;23.00;99.90
15115;DHT22;7658;51.456;7.622;2022-07-03T08:32:31;23.10;99.90
15115;DHT22;7658;51.456;7.622;2022-07-03T08:34:57;23.30;99.90
15115;DHT22;7658;51.456;7.622;2022-07-03T08:37:23;23.20;99.90
15115;DHT22;7658;51.456;7.622;2022-07-03T08:39:48;23.40;99.90
15115;DHT22;7658;51.456;7.622;2022-07-03T08:42:15;23.50;99.90
15115;DHT22;7658;51.456;7.622;2022-07-03T08:44:43;23.50;99.90
15115;DHT22;7658;51.456;7.622;2022-07-03T08:47:11;23.60;99.90
15115;DHT22;7658;51.456;7.622;2022-07-03T08:49:38;23.70;99.90
15115;DHT22;7658;51.456;7.622;2022-07-03T08:52:04;23.70;99.90
15115;DHT22;7658;51.456;7.622;2022-07-03T08:54:33;23.80;99.90
15115;DHT22;7658;51.456;7.622;2022-07-03T08:57:03;23.90;99.90
15115;DHT22;7658;51.456;7.622;2022-07-03T08:59:39;23.90;99.90
15115;DHT22;7658;51.456;7.622;2022-07-03T09:02:05;24.00;99.90
15115;DHT22;7658;51.456;7.622;2022-07-03T09:04:33;24.20;99.90
15115;DHT22;7658;51.456;7.622;2022-07-03T09:07:00;24.30;99.90
15115;DHT22;7658;51.456;7.622;2022-07-03T09:09:26;24.30;99.90
15115;DHT22;7658;51.456;7.622;2022-07-03T09:11:52;24.50;99.90
15115;DHT22;7658;51.456;7.622;2022-07-03T09:14:19;24.50;99.90
15115;DHT22;7658;51.456;7.622;2022-07-03T09:16:45;24.70;99.90
15115;DHT22;7658;51.456;7.622;2022-07-03T09:19:11;25.00;99.90
15115;DHT22;7658;51.456;7.622;2022-07-03T09:21:38;25.10;99.90
15115;DHT22;7658;51.456;7.622;2022-07-03T09:24:05;25.30;99.90
15115;DHT22;7658;51.456;7.622;2022-07-03T09:26:32;25.40;99.90
15115;DHT22;7658;51.456;7.622;2022-07-03T09:28:58;25.60;99.90
15115;DHT22;7658;51.456;7.622;2022-07-03T09:31:28;25.80;99.90
15115;DHT22;7658;51.456;7.622;2022-07-03T09:33:55;25.70;99.90
15115;DHT22;7658;51.456;7.622;2022-07-03T09:36:23;25.70;99.90
15115;DHT22;7658;51.456;7.622;2022-07-03T09:38:49;26.00;99.90
15115;DHT22;7658;51.456;7.622;2022-07-03T09:41:15;26.00;99.90
15115;DHT22;7658;51.456;7.622;2022-07-03T09:43:42;26.00;99.90
15115;DHT22;7658;51.456;7.622;2022-07-03T09:46:09;26.20;99.90
15115;DHT22;7658;51.456;7.622;2022-07-03T09:48:36;26.20;99.90
15115;DHT22;7658;51.456;7.622;2022-07-03T09:53:50;26.20;99.90
15115;DHT22;7658;51.456;7.622;2022-07-03T09:56:19;26.20;99.90
15115;DHT22;7658;51.456;7.622;2022-07-03T09:59:09;26.20;99.90
15115;DHT22;7658;51.456;7.622;2022-07-03T10:01:46;26.00;99.90
15115;DHT22;7658;51.456;7.622;2022-07-03T10:04:19;26.10;99.90
15115;DHT22;7658;51.456;7.622;2022-07-03T10:06:47;26.20;99.90
15115;DHT22;7658;51.456;7.622;2022-07-03T10:09:15;26.30;99.90
15115;DHT22;7658;51.456;7.622;2022-07-03T10:11:41;26.50;99.90
15115;DHT22;7658;51.456;7.622;2022-07-03T10:14:08;26.60;99.90
15115;DHT22;7658;51.456;7.622;2022-07-03T10:16:37;26.50;99.90
15115;DHT22;7658;51.456;7.622;2022-07-03T10:19:04;26.50;99.90
15115;DHT22;7658;51.456;7.622;2022-07-03T10:21:32;26.60;99.90
15115;DHT22;7658;51.456;7.622;2022-07-03T10:23:59;26.50;99.90
15115;DHT22;7658;51.456;7.622;2022-07-03T10:26:25;26.70;99.90
15115;DHT22;7658;51.456;7.622;2022-07-03T10:28:52;26.80;99.90
15115;DHT22;7658;51.456;7.622;2022-07-03T10:31:18;27.10;99.90
15115;DHT22;7658;51.456;7.622;2022-07-03T10:33:44;27.10;99.90
15115;DHT22;7658;51.456;7.622;2022-07-03T10:36:11;26.90;99.90
15115;DHT22;7658;51.456;7.622;2022-07-03T10:38:42;27.10;99.90
15115;DHT22;7658;51.456;7.622;2022-07-03T10:41:25;27.10;99.90
15115;DHT22;7658;51.456;7.622;2022-07-03T10:44:15;26.90;99.90
15115;DHT22;7658;51.456;7.622;2022-07-03T10:47:00;26.90;99.90
15115;DHT22;7658;51.456;7.622;2022-07-03T10:49:26;27.00;99.90
15115;DHT22;7658;51.456;7.622;2022-07-03T10:52:00;27.10;99.90
15115;DHT22;7658;51.456;7.622;2022-07-03T10:54:33;27.20;99.90
15115;DHT22;7658;51.456;7.622;2022-07-03T11:02:21;26.80;99.90
15115;DHT22;7658;51.456;7.622;2022-07-03T11:07:22;27.00;99.90
15115;DHT22;7658;51.456;7.622;2022-07-03T11:15:37;26.80;99.90
15115;DHT22;7658;51.456;7.622;2022-07-03T11:18:09;26.60;99.90
15115;DHT22;7658;51.456;7.622;2022-07-03T11:25:46;26.50;99.90
15115;DHT22;7658;51.456;7.622;2022-07-03T11:36:32;27.80;99.90
15115;DHT22;7658;51.456;7.622;2022-07-03T11:41:26;26.90;99.90
15115;DHT22;7658;51.456;7.622;2022-07-03T11:43:57;26.90;99.90
15115;DHT22;7658;51.456;7.622;2022-07-03T11:46:26;26.80;99.90
15115;DHT22;7658;51.456;7.622;2022-07-03T11:51:43;27.00;99.90
15115;DHT22;7658;51.456;7.622;2022-07-03T11:54:18;27.00;99.90
15115;DHT22;7658;51.456;7.622;2022-07-03T11:56:44;27.20;99.90
15115;DHT22;7658;51.456;7.622;2022-07-03T11:59:13;27.40;99.90
15115;DHT22;7658;51.456;7.622;2022-07-03T12:01:39;27.60;99.90
15115;DHT22;7658;51.456;7.622;2022-07-03T12:04:20;27.80;99.90
15115;DHT22;7658;51.456;7.622;2022-07-03T12:06:53;28.10;99.90
15115;DHT22;7658;51.456;7.622;2022-07-03T12:09:29;28.00;99.90
15115;DHT22;7658;51.456;7.622;2022-07-03T12:11:56;28.10;99.90
15115;DHT22;7658;51.456;7.622;2022-07-03T12:17:09;27.50;99.90
15115;DHT22;7658;51.456;7.622;2022-07-03T12:19:36;26.90;99.90
15115;DHT22;7658;51.456;7.622;2022-07-03T12:22:05;26.70;99.90
15115;DHT22;7658;51.456;7.622;2022-07-03T12:24:32;27.00;99.90
15115;DHT22;7658;51.456;7.622;2022-07-03T12:27:01;27.30;99.90
15115;DHT22;7658;51.456;7.622;2022-07-03T12:29:27;27.20;99.90
15115;DHT22;7658;51.456;7.622;2022-07-03T12:31:54;27.40;99.90
15115;DHT22;7658;51.456;7.622;2022-07-03T12:34:19;27.60;99.90
15115;DHT22;7658;51.456;7.622;2022-07-03T12:36:59;27.70;99.90
15115;DHT22;7658;51.456;7.622;2022-07-03T12:39:49;28.10;99.90
15115;DHT22;7658;51.456;7.622;2022-07-03T12:42:16;28.60;99.90
15115;DHT22;7658;51.456;7.622;2022-07-03T12:44:42;28.80;99.90
15115;DHT22;7658;51.456;7.622;2022-07-03T12:47:08;28.60;99.90
15115;DHT22;7658;51.456;7.622;2022-07-03T12:49:33;28.50;99.90
15115;DHT22;7658;51.456;7.622;2022-07-03T12:52:01;28.60;99.90
15115;DHT22;7658;51.456;7.622;2022-07-03T12:54:34;28.80;99.90
15115;DHT22;7658;51.456;7.622;2022-07-03T12:57:10;28.80;99.90
15115;DHT22;7658;51.456;7.622;2022-07-03T13:00:21;28.70;99.90
15115;DHT22;7658;51.456;7.622;2022-07-03T13:02:48;28.60;99.90
15115;DHT22;7658;51.456;7.622;2022-07-03T13:05:18;28.60;99.90
15115;DHT22;7658;51.456;7.622;2022-07-03T13:07:46;28.50;99.90
15115;DHT22;7658;51.456;7.622;2022-07-03T13:10:18;28.70;99.90
15115;DHT22;7658;51.456;7.622;2022-07-03T13:12:55;28.90;99.90
15115;DHT22;7658;51.456;7.622;2022-07-03T13:15:28;29.30;99.90
15115;DHT22;7658;51.456;7.622;2022-07-03T13:20:31;29.10;99.90
15115;DHT22;7658;51.456;7.622;2022-07-03T13:23:02;29.30;99.90
15115;DHT22;7658;51.456;7.622;2022-07-03T13:25:28;29.20;99.90
15115;DHT22;7658;51.456;7.622;2022-07-03T13:28:07;29.20;99.90
15115;DHT22;7658;51.456;7.622;2022-07-03T13:30:33;29.40;99.90
15115;DHT22;7658;51.456;7.622;2022-07-03T13:32:59;29.60;99.90
15115;DHT22;7658;51.456;7.622;2022-07-03T13:35:25;29.70;99.90
15115;DHT22;7658;51.456;7.622;2022-07-03T13:37:51;29.90;99.90
15115;DHT22;7658;51.456;7.622;2022-07-03T13:40:17;29.50;99.90
15115;DHT22;7658;51.456;7.622;2022-07-03T13:42:43;29.10;99.90
15115;DHT22;7658;51.456;7.622;2022-07-03T13:45:09;28.50;99.90
15115;DHT22;7658;51.456;7.622;2022-07-03T13:47:36;28.20;99.90
15115;DHT22;7658;51.456;7.622;2022-07-03T13:50:02;27.80;99.90
15115;DHT22;7658;51.456;7.622;2022-07-03T13:52:28;27.70;99.90
15115;DHT22;7658;51.456;7.622;2022-07-03T13:54:55;28.00;99.90
15115;DHT22;7658;51.456;7.622;2022-07-03T13:57:21;28.30;99.90
15115;DHT22;7658;51.456;7.622;2022-07-03T13:59:47;28.90;99.90
15115;DHT22;7658;51.456;7.622;2022-07-03T14:02:14;29.00;99.90
15115;DHT22;7658;51.456;7.622;2022-07-03T14:04:40;28.80;99.90
15115;DHT22;7658;51.456;7.622;2022-07-03T14:07:05;29.00;99.90
15115;DHT22;7658;51.456;7.622;2022-07-03T14:09:31;29.20;99.90
15115;DHT22;7658;51.456;7.622;2022-07-03T14:11:57;29.20;99.90
15115;DHT22;7658;51.456;7.622;2022-07-03T14:14:23;29.30;99.90
15115;DHT22;7658;51.456;7.622;2022-07-03T14:16:49;29.00;99.90
15115;DHT22;7658;51.456;7.622;2022-07-03T14:19:15;29.00;99.90
15115;DHT22;7658;51.456;7.622;2022-07-03T14:21:40;28.80;99.90
15115;DHT22;7658;51.456;7.622;2022-07-03T14:24:06;28.80;99.90
15115;DHT22;7658;51.456;7.622;2022-07-03T14:26:32;28.70;99.90
15115;DHT22;7658;51.456;7.622;2022-07-03T14:29:16;28.70;99.90
15115;DHT22;7658;51.456;7.622;2022-07-03T14:32:00;28.90;99.90
15115;DHT22;7658;51.456;7.622;2022-07-03T14:34:44;28.90;99.90
15115;DHT22;7658;51.456;7.622;2022-07-03T14:37:10;28.80;99.90
15115;DHT22;7658;51.456;7.622;2022-07-03T14:39:36;28.90;99.90
15115;DHT22;7658;51.456;7.622;2022-07-03T14:42:02;28.60;99.90
15115;DHT22;7658;51.456;7.622;2022-07-03T14:44:29;28.50;99.90
15115;DHT22;7658;51.456;7.622;2022-07-03T14:46:55;28.60;99.90
15115;DHT22;7658;51.456;7.622;2022-07-03T14:49:21;28.80;99.90
15115;DHT22;7658;51.456;7.622;2022-07-03T14:51:47;28.80;99.90
15115;DHT22;7658;51.456;7.622;2022-07-03T14:54:18;29.10;99.90
15115;DHT22;7658;51.456;7.622;2022-07-03T14:56:54;28.80;99.90
15115;DHT22;7658;51.456;7.622;2022-07-03T15:02:20;27.80;99.90
15115;DHT22;7658;51.456;7.622;2022-07-03T15:10:19;27.40;99.90
15115;DHT22;7658;51.456;7.622;2022-07-03T15:12:52;27.90;99.90
15115;DHT22;7658;51.456;7.622;2022-07-03T15:15:20;28.30;99.90
15115;DHT22;7658;51.456;7.622;2022-07-03T15:17:50;28.30;99.90
15115;DHT22;7658;51.456;7.622;2022-07-03T15:20:17;28.10;99.90
15115;DHT22;7658;51.456;7.622;2022-07-03T15:22:45;27.50;99.90
15115;DHT22;7658;51.456;7.622;2022-07-03T15:25:15;27.30;99.90
15115;DHT22;7658;51.456;7.622;2022-07-03T15:27:41;27.20;99.90
15115;DHT22;7658;51.456;7.622;2022-07-03T15:30:10;26.90;99.90
15115;DHT22;7658;51.456;7.622;2022-07-03T15:32:37;27.10;99.90
15115;DHT22;7658;51.456;7.622;2022-07-03T15:35:03;26.90;99.90
15115;DHT22;7658;51.456;7.622;2022-07-03T15:37:56;26.40;99.90
15115;DHT22;7658;51.456;7.622;2022-07-03T15:40:52;26.00;99.90
15115;DHT22;7658;51.456;7.622;2022-07-03T15:46:11;25.70;99.90
15115;DHT22;7658;51.456;7.622;2022-07-03T15:52:28;25.30;99.90
15115;DHT22;7658;51.456;7.622;2022-07-03T15:57:47;25.00;99.90
15115;DHT22;7658;51.456;7.622;2022-07-03T16:00:15;24.80;99.90
15115;DHT22;7658;51.456;7.622;2022-07-03T16:05:35;24.70;99.90
15115;DHT22;7658;51.456;7.622;2022-07-03T16:08:08;24.70;99.90
15115;DHT22;7658;51.456;7.622;2022-07-03T16:10:36;24.70;99.90
15115;DHT22;7658;51.456;7.622;2022-07-03T16:13:03;24.60;99.90
15115;DHT22;7658;51.456;7.622;2022-07-03T16:15:37;24.50;99.90
15115;DHT22;7658;51.456;7.622;2022-07-03T16:18:04;24.60;99.90
15115;DHT22;7658;51.456;7.622;2022-07-03T16:20:31;24.60;99.90
15115;DHT22;7658;51.456;7.622;2022-07-03T16:23:09;24.60;99.90
15115;DHT22;7658;51.456;7.622;2022-07-03T16:25:36;24.60;99.90
15115;DHT22;7658;51.456;7.622;2022-07-03T16:28:05;24.40;99.90
15115;DHT22;7658;51.456;7.622;2022-07-03T16:30:31;24.30;99.90
15115;DHT22;7658;51.456;7.622;2022-07-03T16:33:04;24.20;99.90
15115;DHT22;7658;51.456;7.622;2022-07-03T16:35:56;24.20;99.90
15115;DHT22;7658;51.456;7.622;2022-07-03T16:38:30;24.10;99.90
15115;DHT22;7658;51.456;7.622;2022-07-03T16:41:01;24.20;99.90
15115;DHT22;7658;51.456;7.622;2022-07-03T16:43:31;24.20;99.90
15115;DHT22;7658;51.456;7.622;2022-07-03T16:45:58;24.30;99.90
15115;DHT22;7658;51.456;7.622;2022-07-03T16:48:28;24.70;99.90
15115;DHT22;7658;51.456;7.622;2022-07-03T16:50:59;24.90;99.90
15115;DHT22;7658;51.456;7.622;2022-07-03T16:53:30;25.00;99.90
15115;DHT22;7658;51.456;7.622;2022-07-03T16:55:57;25.20;99.90
15115;DHT22;7658;51.456;7.622;2022-07-03T16:58:23;25.20;99.90
15115;DHT22;7658;51.456;7.622;2022-07-03T17:00:49;25.20;99.90
15115;DHT22;7658;51.456;7.622;2022-07-03T17:03:18;25.20;99.90
15115;DHT22;7658;51.456;7.622;2022-07-03T17:05:46;25.20;99.90
15115;DHT22;7658;51.456;7.622;2022-07-03T17:08:15;25.30;99.90
15115;DHT22;7658;51.456;7.622;2022-07-03T17:10:41;25.40;99.90
15115;DHT22;7658;51.456;7.622;2022-07-03T17:13:09;25.20;99.90
15115;DHT22;7658;51.456;7.622;2022-07-03T17:15:35;25.10;99.90
15115;DHT22;7658;51.456;7.622;2022-07-03T17:18:06;25.10;99.90
15115;DHT22;7658;51.456;7.622;2022-07-03T17:20:35;25.00;99.90
15115;DHT22;7658;51.456;7.622;2022-07-03T17:23:21;24.90;99.90
15115;DHT22;7658;51.456;7.622;2022-07-03T17:26:01;24.70;99.90
15115;DHT22;7658;51.456;7.622;2022-07-03T17:28:44;24.30;99.90